Time;durP1;ratioP1;P1;durP2;ratioP2;P2;SDS_P1;SDS_P2;PMS_P1;PMS_P2;Temp;Humidity;BMP_temperature;BMP_pressure;BME280_temperature;BME280_humidity;BME280_pressure;Samples;Min_cycle;Max_cycle;Signal;HPM_P1;HPM_P2
2022/10/20 00:02:11;;;;;;;22.90;10.93;;;12.50;96.00;;;;;;5031540;28;20189;-72
2022/10/20 00:04:36;;;;;;;15.43;9.33;;;12.50;95.90;;;;;;5027147;28;20649;-72
2022/10/20 00:07:02;;;;;;;15.23;9.33;;;12.40;95.90;;;;;;5028681;28;20290;-71
2022/10/20 00:09:27;;;;;;;18.03;8.80;;;12.40;95.90;;;;;;5030617;28;20213;-72
2022/10/20 00:11:53;;;;;;;14.17;8.33;;;12.40;95.90;;;;;;5025697;28;20721;-71
2022/10/20 00:14:18;;;;;;;18.33;9.27;;;12.40;95.90;;;;;;5028288;28;20197;-72
2022/10/20 00:16:44;;;;;;;18.30;9.43;;;12.40;95.90;;;;;;5028651;28;20227;-72
2022/10/20 00:19:10;;;;;;;18.73;9.60;;;12.40;95.80;;;;;;5028082;28;20219;-71
2022/10/20 00:21:36;;;;;;;19.67;9.53;;;12.40;95.70;;;;;;5031074;28;20200;-72
2022/10/20 00:24:02;;;;;;;17.07;9.93;;;12.40;95.70;;;;;;5031056;28;20431;-72
2022/10/20 00:26:29;;;;;;;16.70;8.60;;;12.30;95.60;;;;;;5023953;28;21423;-70
2022/10/20 00:28:55;;;;;;;16.93;9.30;;;12.30;95.70;;;;;;5027545;28;20444;-73
2022/10/20 00:31:21;;;;;;;16.80;9.60;;;12.20;95.60;;;;;;5030184;28;20468;-72
2022/10/20 00:33:47;;;;;;;19.53;10.30;;;12.20;95.70;;;;;;5029603;28;20428;-72
2022/10/20 00:36:15;;;;;;;17.60;9.70;;;12.20;95.90;;;;;;5028882;28;20448;-71
2022/10/20 00:38:41;;;;;;;23.67;10.07;;;12.10;96.00;;;;;;5024601;28;20213;-72
2022/10/20 00:41:07;;;;;;;18.10;9.03;;;12.20;96.10;;;;;;5027462;28;20432;-72
2022/10/20 00:43:46;;;;;;;21.23;10.73;;;12.20;96.10;;;;;;5030045;28;20505;-71
2022/10/20 00:46:16;;;;;;;20.93;9.20;;;12.20;96.00;;;;;;5030902;28;20427;-72
2022/10/20 00:48:46;;;;;;;18.50;9.90;;;12.00;96.00;;;;;;5028177;28;20463;-72
2022/10/20 00:51:15;;;;;;;21.00;10.13;;;12.00;96.10;;;;;;5030282;28;20474;-72
2022/10/20 00:53:42;;;;;;;20.97;9.00;;;12.10;96.20;;;;;;5028627;28;20518;-71
2022/10/20 00:56:08;;;;;;;22.80;11.90;;;12.10;96.20;;;;;;5029908;28;20419;-72
2022/10/20 00:58:34;;;;;;;18.80;10.27;;;12.00;96.00;;;;;;5027632;28;20463;-71
2022/10/20 01:01:00;;;;;;;18.17;8.90;;;12.00;96.00;;;;;;5026149;28;20728;-71
2022/10/20 01:03:44;;;;;;;15.97;10.00;;;12.00;96.30;;;;;;5030119;28;20518;-72
2022/10/20 01:06:10;;;;;;;20.43;10.23;;;12.10;96.30;;;;;;5027327;28;20189;-72
2022/10/20 01:08:36;;;;;;;22.53;11.67;;;12.10;96.20;;;;;;5027306;28;20947;-71
2022/10/20 01:11:17;;;;;;;15.17;8.67;;;12.00;96.10;;;;;;5030251;28;20467;-72
2022/10/20 01:14:07;;;;;;;17.10;9.50;;;12.00;96.10;;;;;;5029868;28;20665;-71
2022/10/20 01:16:38;;;;;;;20.57;10.20;;;12.00;96.10;;;;;;5025935;28;20466;-71
2022/10/20 01:19:12;;;;;;;21.47;10.40;;;12.00;96.10;;;;;;5024580;28;20430;-71
2022/10/20 01:21:49;;;;;;;20.67;10.30;;;11.90;96.00;;;;;;5028586;28;20428;-71
2022/10/20 01:25:04;;;;;;;19.53;10.37;;;11.90;96.10;;;;;;5029849;28;20869;-71
2022/10/20 01:27:37;;;;;;;23.00;9.10;;;11.90;96.30;;;;;;5035810;28;20463;-71
2022/10/20 01:30:20;;;;;;;18.90;10.20;;;11.90;96.20;;;;;;5027608;28;20508;-72
2022/10/20 01:32:48;;;;;;;21.57;11.30;;;12.00;96.10;;;;;;5027210;28;20428;-70
2022/10/20 01:35:19;;;;;;;19.60;9.70;;;11.80;96.00;;;;;;5028389;28;20800;-71
2022/10/20 01:38:02;;;;;;;17.90;10.67;;;11.90;96.20;;;;;;5023697;28;20459;-72
2022/10/20 01:40:47;;;;;;;20.13;11.27;;;11.90;96.20;;;;;;5026942;28;20427;-72
2022/10/20 01:43:15;;;;;;;26.00;12.63;;;11.90;96.20;;;;;;5029093;28;20451;-72
2022/10/20 01:45:45;;;;;;;17.57;10.07;;;11.90;96.00;;;;;;5025759;28;20432;-71
2022/10/20 01:48:13;;;;;;;21.10;11.47;;;11.90;95.90;;;;;;5021931;28;20495;-71
2022/10/20 01:50:40;;;;;;;26.10;12.40;;;11.90;96.10;;;;;;5029597;28;20464;-71
2022/10/20 01:53:06;;;;;;;21.47;12.00;;;11.90;95.90;;;;;;5028627;28;20431;-71
2022/10/20 01:55:33;;;;;;;20.93;11.07;;;11.90;96.00;;;;;;5029430;28;21340;-71
2022/10/20 01:58:17;;;;;;;23.17;11.00;;;11.80;96.00;;;;;;5025641;28;20471;-71
2022/10/20 02:00:44;;;;;;;22.33;10.37;;;11.80;96.20;;;;;;5029020;28;20454;-71
2022/10/20 02:03:35;;;;;;;24.53;11.13;;;11.90;96.30;;;;;;5028962;28;20430;-71
2022/10/20 02:06:28;;;;;;;24.23;11.57;;;11.80;96.20;;;;;;5025771;28;20942;-72
2022/10/20 02:08:58;;;;;;;30.97;11.73;;;11.80;96.20;;;;;;5029108;28;20865;-71
2022/10/20 02:11:37;;;;;;;21.10;11.23;;;11.80;96.30;;;;;;5030739;28;20507;-71
2022/10/20 02:14:04;;;;;;;24.13;12.60;;;11.80;96.20;;;;;;5033395;28;20534;-71
2022/10/20 02:16:35;;;;;;;20.50;10.60;;;11.80;96.10;;;;;;5031839;28;20415;-71
2022/10/20 02:19:02;;;;;;;24.53;12.73;;;11.80;96.20;;;;;;5032649;28;20550;-72
2022/10/20 02:21:27;;;;;;;21.13;10.70;;;11.80;96.10;;;;;;5032009;28;20939;-70
2022/10/20 02:23:54;;;;;;;26.07;12.17;;;11.80;96.20;;;;;;5032835;28;20431;-72
2022/10/20 02:26:24;;;;;;;22.50;11.10;;;11.80;96.20;;;;;;5031400;28;20232;-72
2022/10/20 02:28:56;;;;;;;22.23;10.20;;;11.80;96.20;;;;;;5023023;28;20439;-73
2022/10/20 02:31:22;;;;;;;22.30;10.73;;;11.80;96.20;;;;;;5029523;28;20471;-72
2022/10/20 02:33:48;;;;;;;22.90;11.47;;;11.80;96.10;;;;;;5028131;28;20428;-72
2022/10/20 02:36:23;;;;;;;27.57;12.70;;;11.80;96.10;;;;;;5032731;28;20415;-71
2022/10/20 02:38:49;;;;;;;24.37;10.90;;;11.80;96.10;;;;;;5021946;28;20492;-71
2022/10/20 02:41:14;;;;;;;21.53;11.07;;;11.80;96.10;;;;;;5032523;28;20928;-71
2022/10/20 02:43:40;;;;;;;24.80;11.23;;;11.80;96.10;;;;;;5032485;28;20189;-71
2022/10/20 02:46:06;;;;;;;25.10;11.77;;;11.80;96.00;;;;;;5029860;28;20230;-72
2022/10/20 02:48:31;;;;;;;32.00;11.97;;;11.80;96.10;;;;;;5027071;28;20208;-70
2022/10/20 02:50:57;;;;;;;25.30;11.20;;;11.80;96.10;;;;;;5028206;28;20370;-71
2022/10/20 02:53:22;;;;;;;24.20;12.47;;;11.80;96.00;;;;;;5032743;28;20189;-71
2022/10/20 02:55:48;;;;;;;28.43;12.30;;;11.90;96.00;;;;;;5032640;28;20192;-72
2022/10/20 02:58:13;;;;;;;28.20;12.10;;;11.90;96.00;;;;;;5027585;28;20212;-72
2022/10/20 03:00:39;;;;;;;27.83;13.27;;;11.80;95.80;;;;;;5032038;28;20193;-71
2022/10/20 03:03:04;;;;;;;22.50;11.53;;;11.80;96.00;;;;;;5032455;28;20680;-72
2022/10/20 03:05:30;;;;;;;30.00;14.57;;;11.80;96.10;;;;;;5030356;28;20182;-70
2022/10/20 03:07:56;;;;;;;26.60;11.60;;;11.90;96.10;;;;;;5028259;28;20266;-72
2022/10/20 03:10:21;;;;;;;21.93;11.70;;;11.80;96.10;;;;;;5029822;28;20205;-71
2022/10/20 03:12:47;;;;;;;25.87;13.60;;;11.90;96.10;;;;;;5032129;28;20292;-72
2022/10/20 03:15:12;;;;;;;25.03;12.03;;;11.90;96.00;;;;;;5029647;28;20190;-71
2022/10/20 03:17:38;;;;;;;24.77;12.87;;;11.80;95.90;;;;;;5030716;28;20716;-72
2022/10/20 03:20:05;;;;;;;26.63;12.43;;;11.80;95.70;;;;;;5028546;28;20673;-72
2022/10/20 03:22:31;;;;;;;26.73;13.00;;;11.80;95.60;;;;;;5033916;28;20185;-70
2022/10/20 03:24:56;;;;;;;24.53;11.97;;;11.90;95.30;;;;;;5027368;28;20437;-72
2022/10/20 03:27:22;;;;;;;27.30;13.70;;;11.80;95.20;;;;;;5028952;28;20968;-72
2022/10/20 03:29:47;;;;;;;26.07;12.70;;;11.80;95.00;;;;;;5030100;28;21558;-73
2022/10/20 03:32:13;;;;;;;28.63;13.33;;;11.70;95.00;;;;;;5031939;28;20646;-70
2022/10/20 03:34:38;;;;;;;25.57;12.23;;;11.70;95.20;;;;;;5035244;28;20216;-71
2022/10/20 03:37:04;;;;;;;25.67;11.17;;;11.80;95.40;;;;;;5033428;28;20235;-71
2022/10/20 03:39:29;;;;;;;25.00;13.17;;;11.80;95.50;;;;;;5032697;28;20197;-71
2022/10/20 03:41:56;;;;;;;27.83;13.40;;;11.90;95.30;;;;;;5035026;28;20212;-71
2022/10/20 03:44:22;;;;;;;27.30;13.40;;;11.80;94.90;;;;;;5026636;28;20292;-72
2022/10/20 03:46:48;;;;;;;21.90;11.93;;;11.80;94.90;;;;;;5031004;28;20455;-71
2022/10/20 03:49:13;;;;;;;25.50;13.33;;;11.70;95.10;;;;;;5028030;28;20428;-71
2022/10/20 03:51:39;;;;;;;20.27;12.30;;;11.70;95.30;;;;;;5029481;28;20181;-70
2022/10/20 03:54:05;;;;;;;24.27;12.50;;;11.80;95.50;;;;;;5029875;28;20182;-71
2022/10/20 03:56:30;;;;;;;23.73;11.70;;;11.80;95.60;;;;;;5031018;28;20185;-71
2022/10/20 03:58:56;;;;;;;22.80;12.07;;;11.90;95.70;;;;;;5028212;28;20204;-72
2022/10/20 04:01:27;;;;;;;22.23;12.40;;;11.90;95.80;;;;;;5032465;28;20216;-72
2022/10/20 04:03:53;;;;;;;28.70;13.23;;;11.90;95.80;;;;;;5026259;28;20959;-72
2022/10/20 04:06:18;;;;;;;22.43;11.90;;;11.90;95.90;;;;;;5032295;28;20424;-71
2022/10/20 04:08:44;;;;;;;25.87;13.60;;;12.00;96.00;;;;;;5025780;28;20232;-71
2022/10/20 04:11:09;;;;;;;26.67;13.20;;;12.00;95.90;;;;;;5030965;28;20209;-72
2022/10/20 04:13:35;;;;;;;20.97;11.00;;;12.00;95.90;;;;;;5027384;28;20216;-71
2022/10/20 04:16:01;;;;;;;23.07;12.60;;;12.00;95.90;;;;;;5032024;28;20603;-71
2022/10/20 04:18:26;;;;;;;23.23;11.43;;;12.10;95.90;;;;;;5026552;28;20212;-71
2022/10/20 04:20:52;;;;;;;28.43;13.40;;;12.10;95.80;;;;;;5031165;28;20251;-71
2022/10/20 04:23:17;;;;;;;27.37;13.00;;;12.00;95.70;;;;;;5031123;28;20193;-72
2022/10/20 04:25:47;;;;;;;26.80;12.40;;;12.00;95.80;;;;;;5031099;28;20204;-72
2022/10/20 04:28:14;;;;;;;27.23;11.70;;;12.00;96.00;;;;;;5027633;28;20240;-71
2022/10/20 04:30:40;;;;;;;26.23;13.50;;;12.10;96.10;;;;;;5024715;28;20463;-70
2022/10/20 04:33:06;;;;;;;25.90;13.97;;;12.20;96.10;;;;;;5027011;28;20421;-72
2022/10/20 04:35:32;;;;;;;25.77;13.27;;;12.20;95.90;;;;;;5028475;28;20427;-72
2022/10/20 04:37:58;;;;;;;26.80;14.30;;;12.20;95.70;;;;;;5028075;28;20212;-71
2022/10/20 04:40:24;;;;;;;24.10;12.93;;;12.20;95.60;;;;;;5031549;28;20447;-69
2022/10/20 04:42:49;;;;;;;23.40;12.73;;;12.20;95.50;;;;;;5032091;28;20198;-72
2022/10/20 04:45:15;;;;;;;26.90;12.57;;;12.20;95.40;;;;;;5033598;28;21171;-72
2022/10/20 04:47:41;;;;;;;29.67;14.47;;;12.30;95.30;;;;;;5025213;28;20670;-72
2022/10/20 04:50:07;;;;;;;34.43;13.97;;;12.30;95.10;;;;;;5030623;28;20613;-71
2022/10/20 04:52:32;;;;;;;27.37;14.57;;;12.20;94.90;;;;;;5027494;28;20185;-73
2022/10/20 04:54:58;;;;;;;25.93;13.50;;;12.20;95.00;;;;;;5031381;28;20507;-74
2022/10/20 04:57:23;;;;;;;29.43;14.97;;;12.30;95.10;;;;;;5026940;28;20332;-73
2022/10/20 04:59:49;;;;;;;31.17;16.23;;;12.30;95.10;;;;;;5032259;28;20193;-72
2022/10/20 05:02:15;;;;;;;32.27;14.90;;;12.40;94.90;;;;;;5031832;28;20189;-72
2022/10/20 05:04:40;;;;;;;26.33;13.53;;;12.40;94.80;;;;;;5032049;28;20192;-70
2022/10/20 05:07:06;;;;;;;28.87;14.77;;;12.30;94.90;;;;;;5030139;28;20211;-74
2022/10/20 05:09:31;;;;;;;32.30;15.47;;;12.40;95.10;;;;;;5036140;28;20203;-73
2022/10/20 05:11:58;;;;;;;32.93;15.73;;;12.40;95.00;;;;;;5032847;28;20185;-72
2022/10/20 05:14:23;;;;;;;32.70;17.60;;;12.30;95.20;;;;;;5038864;28;20181;-74
2022/10/20 05:16:49;;;;;;;29.73;16.27;;;12.30;95.30;;;;;;5031808;28;20464;-72
2022/10/20 05:19:15;;;;;;;33.20;16.87;;;12.30;95.50;;;;;;5033218;28;20181;-74
2022/10/20 05:21:40;;;;;;;29.57;14.77;;;12.30;95.70;;;;;;5031528;28;20638;-73
2022/10/20 05:24:06;;;;;;;34.87;15.07;;;12.40;95.90;;;;;;5030977;28;20190;-72
2022/10/20 05:26:35;;;;;;;29.03;14.67;;;12.50;95.70;;;;;;5029119;28;20186;-71
2022/10/20 05:29:03;;;;;;;27.43;15.10;;;12.40;95.40;;;;;;5027214;28;20185;-71
2022/10/20 05:31:29;;;;;;;34.13;16.83;;;12.40;95.50;;;;;;5030274;28;20478;-70
2022/10/20 05:33:55;;;;;;;31.37;16.07;;;12.50;95.40;;;;;;5029021;28;20424;-69
2022/10/20 05:36:24;;;;;;;32.67;16.30;;;12.50;95.30;;;;;;5027736;28;20185;-70
2022/10/20 05:38:52;;;;;;;35.10;15.73;;;12.40;95.10;;;;;;5024714;28;20478;-71
2022/10/20 05:41:22;;;;;;;28.67;13.80;;;12.40;95.30;;;;;;5029711;28;21106;-69
2022/10/20 05:43:50;;;;;;;32.67;16.60;;;12.50;95.40;;;;;;5025805;28;20821;-70
2022/10/20 05:46:16;;;;;;;29.77;15.10;;;12.50;95.20;;;;;;5026620;28;20428;-71
2022/10/20 05:48:41;;;;;;;26.90;14.53;;;12.50;95.20;;;;;;5025576;28;20518;-71
2022/10/20 05:51:12;;;;;;;31.90;13.90;;;12.50;95.00;;;;;;5029955;28;20872;-70
2022/10/20 05:53:39;;;;;;;27.20;13.03;;;12.50;95.10;;;;;;5027722;28;20177;-69
2022/10/20 05:56:06;;;;;;;33.07;16.37;;;12.50;95.10;;;;;;5029750;28;20435;-70
2022/10/20 05:58:31;;;;;;;35.40;16.30;;;12.50;95.10;;;;;;5028033;28;20868;-70
2022/10/20 06:01:15;;;;;;;28.67;15.20;;;12.50;95.20;;;;;;5030751;28;20423;-74
2022/10/20 06:03:41;;;;;;;25.20;13.33;;;12.50;95.30;;;;;;5030596;28;20197;-68
2022/10/20 06:06:07;;;;;;;27.13;14.80;;;12.60;95.30;;;;;;5031109;28;20442;-71
2022/10/20 06:08:33;;;;;;;37.83;13.70;;;12.60;95.00;;;;;;5029613;28;20460;-71
2022/10/20 06:11:10;;;;;;;29.00;12.67;;;12.70;94.80;;;;;;5030684;28;20255;-71
2022/10/20 06:13:35;;;;;;;27.17;13.03;;;12.70;94.70;;;;;;5031207;28;20425;-69
2022/10/20 06:16:18;;;;;;;29.50;13.83;;;12.70;94.60;;;;;;5030358;28;20499;-71
2022/10/20 06:18:44;;;;;;;29.40;13.70;;;12.80;94.40;;;;;;5027915;28;20739;-70
2022/10/20 06:21:15;;;;;;;24.13;11.90;;;12.80;94.30;;;;;;5029252;28;20432;-70
2022/10/20 06:23:41;;;;;;;27.20;12.73;;;12.80;94.30;;;;;;5027604;28;20633;-72
2022/10/20 06:26:11;;;;;;;28.07;12.93;;;12.90;94.00;;;;;;5030198;28;20421;-70
2022/10/20 06:28:39;;;;;;;22.80;11.20;;;12.80;93.80;;;;;;5025844;28;20213;-70
2022/10/20 06:31:17;;;;;;;22.20;12.33;;;12.70;93.80;;;;;;5031991;28;20497;-70
2022/10/20 06:33:43;;;;;;;24.80;12.47;;;12.80;94.00;;;;;;5030363;28;20831;-70
2022/10/20 06:36:09;;;;;;;21.67;12.37;;;12.80;94.00;;;;;;5029466;28;20416;-72
2022/10/20 06:38:35;;;;;;;27.03;12.83;;;12.80;94.10;;;;;;5023475;28;20205;-71
2022/10/20 06:41:05;;;;;;;23.60;12.50;;;12.90;94.10;;;;;;5029711;28;20427;-71
2022/10/20 06:43:30;;;;;;;35.30;14.17;;;12.90;93.80;;;;;;5029988;28;20474;-71
2022/10/20 06:46:04;;;;;;;29.80;14.10;;;12.90;93.40;;;;;;5030801;28;20935;-71
2022/10/20 06:48:31;;;;;;;33.53;15.00;;;12.80;93.30;;;;;;5023917;28;20292;-73
2022/10/20 06:50:58;;;;;;;26.90;13.83;;;12.60;93.60;;;;;;5029292;28;20463;-71
2022/10/20 06:53:25;;;;;;;36.40;16.60;;;12.50;94.00;;;;;;5029311;28;20431;-72
2022/10/20 06:55:59;;;;;;;27.40;14.53;;;12.40;94.20;;;;;;5028248;28;20462;-73
2022/10/20 06:58:25;;;;;;;38.37;15.03;;;12.50;94.50;;;;;;5026940;28;20460;-70
2022/10/20 07:01:07;;;;;;;34.00;14.63;;;12.50;94.50;;;;;;5030235;28;20436;-70
2022/10/20 07:03:35;;;;;;;30.17;13.53;;;12.60;94.50;;;;;;5029881;28;20859;-71
2022/10/20 07:06:01;;;;;;;29.97;13.70;;;12.60;94.50;;;;;;5033425;28;20442;-72
2022/10/20 07:08:28;;;;;;;34.73;13.90;;;12.70;94.40;;;;;;5029972;28;20468;-71
2022/10/20 07:11:04;;;;;;;26.63;13.33;;;12.80;94.20;;;;;;5026079;28;20482;-70
2022/10/20 07:13:30;;;;;;;30.67;13.30;;;12.80;93.80;;;;;;5029765;28;20455;-73
2022/10/20 07:15:57;;;;;;;26.63;14.90;;;12.80;93.70;;;;;;5031282;28;20484;-70
2022/10/20 07:18:24;;;;;;;30.43;13.80;;;12.80;93.60;;;;;;5030858;28;20468;-72
2022/10/20 07:20:49;;;;;;;23.53;12.07;;;12.90;93.70;;;;;;5029838;28;20431;-70
2022/10/20 07:23:15;;;;;;;24.60;13.53;;;13.00;93.80;;;;;;5032390;28;20428;-73
2022/10/20 07:25:41;;;;;;;22.73;12.80;;;13.10;93.30;;;;;;5030105;28;20193;-70
2022/10/20 07:28:06;;;;;;;31.60;13.73;;;13.20;92.90;;;;;;5033563;28;20240;-70
2022/10/20 07:30:40;;;;;;;29.70;14.13;;;13.30;92.70;;;;;;5034337;28;20299;-71
2022/10/20 07:33:06;;;;;;;24.33;13.47;;;13.30;92.70;;;;;;5025605;28;20250;-71
2022/10/20 07:35:32;;;;;;;22.33;12.87;;;13.30;92.80;;;;;;5032179;28;20977;-73
2022/10/20 07:37:57;;;;;;;29.50;13.70;;;13.40;92.90;;;;;;5026204;28;20487;-71
2022/10/20 07:40:23;;;;;;;24.93;12.43;;;13.60;92.70;;;;;;5035376;28;20193;-71
2022/10/20 07:42:48;;;;;;;21.50;11.50;;;13.70;91.90;;;;;;5029613;28;20696;-72
2022/10/20 07:45:14;;;;;;;23.13;12.20;;;13.60;91.70;;;;;;5032284;28;20681;-69
2022/10/20 07:47:39;;;;;;;25.97;12.77;;;13.60;91.50;;;;;;5027200;28;20282;-71
2022/10/20 07:50:06;;;;;;;24.57;13.40;;;13.60;91.50;;;;;;5032512;28;20240;-71
2022/10/20 07:52:32;;;;;;;21.50;11.80;;;13.50;91.80;;;;;;5031394;28;20177;-70
2022/10/20 07:54:57;;;;;;;27.80;12.70;;;13.60;91.90;;;;;;5032252;28;20569;-70
2022/10/20 07:57:23;;;;;;;23.87;11.77;;;13.80;91.70;;;;;;5030261;28;20244;-75
2022/10/20 07:59:48;;;;;;;24.90;12.60;;;13.80;91.50;;;;;;5031735;28;20194;-70
2022/10/20 08:02:15;;;;;;;23.07;11.63;;;13.80;91.50;;;;;;5031277;28;20197;-72
2022/10/20 08:04:42;;;;;;;25.07;12.30;;;13.80;91.40;;;;;;5031530;28;20193;-70
2022/10/20 08:07:09;;;;;;;22.37;12.10;;;13.90;91.70;;;;;;5029993;28;20455;-71
2022/10/20 08:09:35;;;;;;;26.27;12.03;;;14.00;91.50;;;;;;5031664;28;20467;-71
2022/10/20 08:12:02;;;;;;;19.27;11.17;;;14.00;91.40;;;;;;5032639;28;20459;-71
2022/10/20 08:14:30;;;;;;;15.20;9.17;;;14.00;91.20;;;;;;5030595;28;20212;-70
2022/10/20 08:16:56;;;;;;;19.93;10.10;;;14.10;91.30;;;;;;5025225;28;20460;-70
2022/10/20 08:19:22;;;;;;;19.57;11.13;;;14.20;91.30;;;;;;5029495;28;20528;-71
2022/10/20 08:21:47;;;;;;;24.57;10.47;;;14.30;91.10;;;;;;5029314;28;20177;-72
2022/10/20 08:24:13;;;;;;;18.97;10.83;;;14.50;90.60;;;;;;5029248;28;20186;-72
2022/10/20 08:26:39;;;;;;;21.07;11.20;;;14.50;90.30;;;;;;5027811;28;20250;-69
2022/10/20 08:29:05;;;;;;;23.70;10.90;;;14.60;89.50;;;;;;5030211;28;20201;-70
2022/10/20 08:31:30;;;;;;;20.03;10.13;;;14.60;89.30;;;;;;5025139;28;20205;-71
2022/10/20 08:33:56;;;;;;;16.40;10.17;;;14.80;89.20;;;;;;5030533;28;20437;-73
2022/10/20 08:36:22;;;;;;;18.93;10.10;;;14.80;88.60;;;;;;5030350;28;20635;-72
2022/10/20 08:38:47;;;;;;;20.97;11.10;;;14.70;88.70;;;;;;5022805;28;20689;-71
2022/10/20 08:41:19;;;;;;;17.93;9.70;;;14.60;89.30;;;;;;5030028;28;20206;-69
2022/10/20 08:43:47;;;;;;;19.03;10.07;;;14.70;89.70;;;;;;5030426;28;20311;-71
2022/10/20 08:46:14;;;;;;;18.50;9.50;;;14.90;89.60;;;;;;5028555;28;20433;-72
2022/10/20 08:48:41;;;;;;;16.97;9.13;;;15.00;89.50;;;;;;5029017;28;20479;-73
2022/10/20 08:51:18;;;;;;;15.10;9.07;;;15.20;89.20;;;;;;5027322;28;20463;-70
2022/10/20 08:53:44;;;;;;;15.73;8.17;;;15.20;88.70;;;;;;5029569;28;20507;-73
2022/10/20 08:56:12;;;;;;;13.87;8.03;;;15.40;88.30;;;;;;5035646;28;20435;-73
2022/10/20 08:58:44;;;;;;;13.40;8.60;;;15.50;88.00;;;;;;5034104;28;20462;-70
2022/10/20 09:01:25;;;;;;;19.03;9.87;;;15.60;88.00;;;;;;5039877;28;20440;-69
2022/10/20 09:03:57;;;;;;;17.60;7.30;;;15.60;86.90;;;;;;5036977;28;20432;-73
2022/10/20 09:06:23;;;;;;;13.43;8.00;;;15.80;86.60;;;;;;5037584;28;20439;-71
2022/10/20 09:08:50;;;;;;;13.43;7.87;;;15.80;86.00;;;;;;5037363;28;20508;-72
2022/10/20 09:11:21;;;;;;;11.77;6.37;;;15.80;86.00;;;;;;5041261;28;20662;-72
2022/10/20 09:13:47;;;;;;;11.53;7.53;;;16.00;86.00;;;;;;5040566;28;20892;-71
2022/10/20 09:16:30;;;;;;;10.43;6.60;;;16.00;85.30;;;;;;5047341;28;20451;-70
2022/10/20 09:19:00;;;;;;;12.57;6.33;;;16.20;85.20;;;;;;5042741;28;20499;-71
2022/10/20 09:21:27;;;;;;;13.77;6.83;;;16.20;84.60;;;;;;5041307;28;20428;-72
2022/10/20 09:23:59;;;;;;;13.13;7.87;;;16.20;84.90;;;;;;5043801;28;20427;-71
2022/10/20 09:26:30;;;;;;;10.57;6.93;;;16.30;84.10;;;;;;5049154;28;20441;-71
2022/10/20 09:29:03;;;;;;;12.47;7.87;;;16.20;84.60;;;;;;5044241;28;20444;-72
2022/10/20 09:31:35;;;;;;;11.87;7.40;;;16.30;84.90;;;;;;5047240;28;20470;-71
2022/10/20 09:34:03;;;;;;;10.63;6.13;;;16.50;83.70;;;;;;5045202;28;20416;-71
2022/10/20 09:36:34;;;;;;;12.10;6.23;;;16.60;83.70;;;;;;5043391;28;20463;-71
2022/10/20 09:39:00;;;;;;;11.07;7.60;;;16.80;83.30;;;;;;5043985;28;20444;-71
2022/10/20 09:41:30;;;;;;;10.77;6.63;;;16.70;82.40;;;;;;5044860;28;20439;-72
2022/10/20 09:44:03;;;;;;;10.87;7.10;;;16.80;83.00;;;;;;5045020;28;20434;-72
2022/10/20 09:46:36;;;;;;;16.87;7.40;;;16.80;83.00;;;;;;5043909;28;20424;-71
2022/10/20 09:49:20;;;;;;;9.87;6.47;;;16.90;82.80;;;;;;5041312;28;20431;-71
2022/10/20 09:51:46;;;;;;;13.47;6.73;;;17.00;82.20;;;;;;5044280;28;20471;-72
2022/10/20 09:54:18;;;;;;;9.93;6.70;;;17.00;81.70;;;;;;5045182;28;20433;-71
2022/10/20 09:56:46;;;;;;;11.53;6.90;;;17.10;81.80;;;;;;5043279;28;20447;-72
2022/10/20 09:59:18;;;;;;;11.07;6.90;;;17.20;81.70;;;;;;5042737;28;20435;-72
2022/10/20 10:01:55;;;;;;;11.90;6.40;;;17.30;81.10;;;;;;5043949;28;20455;-73
2022/10/20 10:04:42;;;;;;;10.47;6.63;;;17.30;81.40;;;;;;5039410;28;20420;-71
2022/10/20 10:07:20;;;;;;;31.40;18.30;;;17.50;80.90;;;;;;5043152;28;20467;-72
2022/10/20 10:09:57;;;;;;;11.70;7.33;;;17.60;80.80;;;;;;5044446;28;20623;-71
2022/10/20 10:12:25;;;;;;;12.47;6.87;;;17.70;79.70;;;;;;5037813;28;20435;-71
2022/10/20 10:14:57;;;;;;;13.13;7.80;;;17.80;79.70;;;;;;5041760;28;20527;-72
2022/10/20 10:17:31;;;;;;;17.67;8.50;;;17.80;79.50;;;;;;5034053;28;20464;-73
2022/10/20 10:19:58;;;;;;;10.83;6.63;;;17.90;79.70;;;;;;5040103;28;20412;-72
2022/10/20 10:22:23;;;;;;;10.07;6.77;;;18.00;79.70;;;;;;5045672;28;20428;-72
2022/10/20 10:24:50;;;;;;;14.97;7.47;;;18.10;79.20;;;;;;5050092;28;20805;-71
2022/10/20 10:27:30;;;;;;;10.30;6.40;;;18.00;78.70;;;;;;5043503;28;20213;-72
2022/10/20 10:30:16;;;;;;;12.20;7.00;;;17.80;79.70;;;;;;5048623;28;20499;-71
2022/10/20 10:32:46;;;;;;;9.63;7.00;;;18.00;80.00;;;;;;5047678;28;20486;-72
2022/10/20 10:35:18;;;;;;;10.73;6.70;;;18.20;79.30;;;;;;5044484;28;20429;-73
2022/10/20 10:37:45;;;;;;;11.50;7.53;;;18.10;78.70;;;;;;5026015;28;20476;-72
2022/10/20 10:40:17;;;;;;;10.70;6.90;;;17.90;79.70;;;;;;5031366;28;20456;-72
2022/10/20 10:42:52;;;;;;;13.43;6.60;;;18.20;79.30;;;;;;5028786;28;20532;-72
2022/10/20 10:45:34;;;;;;;12.50;6.70;;;18.30;78.40;;;;;;5028830;28;20429;-72
2022/10/20 10:48:03;;;;;;;10.30;6.40;;;18.50;78.30;;;;;;5024793;28;20485;-71
2022/10/20 10:50:46;;;;;;;16.17;8.20;;;18.70;77.60;;;;;;5032712;28;20592;-72
2022/10/20 10:53:52;;;;;;;14.67;7.73;;;18.70;77.10;;;;;;5030205;28;20486;-73
2022/10/20 10:56:42;;;;;;;10.23;6.80;;;18.60;77.30;;;;;;5024903;28;20427;-72
2022/10/20 10:59:12;;;;;;;14.50;7.67;;;18.60;76.80;;;;;;5032190;28;20924;-72
2022/10/20 11:01:37;;;;;;;11.00;6.43;;;18.50;77.40;;;;;;5032624;28;20519;-71
2022/10/20 11:04:27;;;;;;;11.60;6.50;;;18.40;78.00;;;;;;5032002;28;20531;-71
2022/10/20 11:07:00;;;;;;;10.10;6.60;;;18.20;78.90;;;;;;5025776;28;20207;-72
2022/10/20 11:09:32;;;;;;;11.77;6.80;;;18.30;79.00;;;;;;5032910;28;20429;-71
2022/10/20 11:12:17;;;;;;;13.47;6.20;;;18.20;79.60;;;;;;5031085;28;20827;-71
2022/10/20 11:14:54;;;;;;;11.63;7.10;;;18.20;79.60;;;;;;5018374;28;20436;-71
2022/10/20 11:17:36;;;;;;;10.17;6.77;;;18.20;79.90;;;;;;5025676;28;20457;-71
2022/10/20 11:20:26;;;;;;;11.87;6.60;;;18.20;79.90;;;;;;5027139;28;20416;-71
2022/10/20 11:23:16;;;;;;;11.53;6.47;;;18.20;80.00;;;;;;5029817;28;20420;-72
2022/10/20 11:25:52;;;;;;;10.67;6.80;;;18.40;79.50;;;;;;5033160;28;20484;-72
2022/10/20 11:28:35;;;;;;;10.57;6.00;;;18.30;79.30;;;;;;5023104;28;20961;-72
2022/10/20 11:31:02;;;;;;;10.80;7.07;;;18.20;79.70;;;;;;5029191;28;20841;-73
2022/10/20 11:33:39;;;;;;;9.50;5.80;;;18.30;79.50;;;;;;5031757;28;20940;-71
2022/10/20 11:36:17;;;;;;;12.90;7.30;;;18.30;79.70;;;;;;5034743;28;20426;-71
2022/10/20 11:38:50;;;;;;;11.70;6.07;;;18.40;79.50;;;;;;5024019;28;20460;-71
2022/10/20 11:41:39;;;;;;;27.13;8.00;;;18.40;79.50;;;;;;5031458;28;20425;-72
2022/10/20 11:44:21;;;;;;;11.80;6.13;;;18.50;79.20;;;;;;5026572;28;20467;-72
2022/10/20 11:46:53;;;;;;;10.47;6.50;;;18.40;79.70;;;;;;5029119;28;20437;-71
2022/10/20 11:49:19;;;;;;;11.60;7.00;;;18.40;79.60;;;;;;5028621;28;20428;-72
2022/10/20 11:52:22;;;;;;;12.73;7.27;;;18.30;79.50;;;;;;5031208;28;21029;-69
2022/10/20 11:55:24;;;;;;;8.33;6.20;;;18.30;79.90;;;;;;5031229;28;20178;-73
2022/10/20 11:58:20;;;;;;;10.80;6.87;;;18.20;80.50;;;;;;4995662;28;20896;-71
2022/10/20 12:01:08;;;;;;;12.40;7.07;;;18.20;80.60;;;;;;4994726;28;20447;-71
2022/10/20 12:03:48;;;;;;;13.03;7.00;;;18.10;80.30;;;;;;4987980;28;20471;-71
2022/10/20 12:06:55;;;;;;;13.00;6.77;;;18.00;80.80;;;;;;4987233;28;20480;-72
2022/10/20 12:09:26;;;;;;;8.47;5.67;;;18.00;81.70;;;;;;4985917;28;20441;-73
2022/10/20 12:12:04;;;;;;;11.17;7.20;;;18.20;81.50;;;;;;4987218;28;20570;-72
2022/10/20 12:14:36;;;;;;;11.43;6.43;;;18.20;80.30;;;;;;4991559;28;20462;-72
2022/10/20 12:17:04;;;;;;;10.90;6.23;;;18.20;80.60;;;;;;4989188;28;20479;-73
2022/10/20 12:19:32;;;;;;;11.53;6.03;;;18.20;80.90;;;;;;4991545;28;20433;-73
2022/10/20 12:22:13;;;;;;;13.00;6.57;;;18.20;81.10;;;;;;4983798;28;20499;-72
2022/10/20 12:24:53;;;;;;;10.73;6.50;;;18.30;80.80;;;;;;4990947;28;20420;-72
2022/10/20 12:27:21;;;;;;;8.60;6.17;;;18.30;80.60;;;;;;4988874;28;20465;-72
2022/10/20 12:29:51;;;;;;;8.83;6.60;;;18.30;80.90;;;;;;4983186;28;20439;-73
2022/10/20 12:32:23;;;;;;;12.73;6.60;;;18.30;80.60;;;;;;5002502;28;20951;-73
2022/10/20 12:34:54;;;;;;;10.37;5.83;;;18.20;81.20;;;;;;5017295;28;20519;-72
2022/10/20 12:37:27;;;;;;;13.17;6.67;;;18.30;80.80;;;;;;5021511;28;21101;-71
2022/10/20 12:39:55;;;;;;;11.97;6.10;;;18.30;81.10;;;;;;5028383;28;20527;-73
2022/10/20 12:42:29;;;;;;;8.50;5.93;;;18.40;81.40;;;;;;5028214;28;20447;-72
2022/10/20 12:45:01;;;;;;;10.00;5.90;;;18.40;81.40;;;;;;5024565;28;20424;-71
2022/10/20 12:47:29;;;;;;;9.83;6.63;;;18.40;81.50;;;;;;5025043;28;20900;-71